sensor_id;sensor_type;location;lat;lon;timestamp;P1;durP1;ratioP1;P2;durP2;ratioP2
57985;SDS011;43788;42.670;23.330;2024-03-25T00:00:28;0.00;;;0.00;;
57985;SDS011;43788;42.670;23.330;2024-03-25T00:02:54;0.00;;;0.00;;
57985;SDS011;43788;42.670;23.330;2024-03-25T00:05:20;0.00;;;0.00;;
57985;SDS011;43788;42.670;23.330;2024-03-25T00:07:47;0.00;;;0.00;;
57985;SDS011;43788;42.670;23.330;2024-03-25T00:10:13;0.00;;;0.00;;
57985;SDS011;43788;42.670;23.330;2024-03-25T00:12:39;0.00;;;0.00;;
57985;SDS011;43788;42.670;23.330;2024-03-25T00:15:05;0.00;;;0.00;;
57985;SDS011;43788;42.670;23.330;2024-03-25T00:17:30;0.00;;;0.00;;
57985;SDS011;43788;42.670;23.330;2024-03-25T00:19:56;0.00;;;0.00;;
57985;SDS011;43788;42.670;23.330;2024-03-25T00:22:23;0.00;;;0.00;;
57985;SDS011;43788;42.670;23.330;2024-03-25T00:24:50;0.45;;;0.10;;
57985;SDS011;43788;42.670;23.330;2024-03-25T00:27:16;0.00;;;0.00;;
57985;SDS011;43788;42.670;23.330;2024-03-25T00:29:42;0.00;;;0.00;;
57985;SDS011;43788;42.670;23.330;2024-03-25T00:32:09;0.10;;;0.00;;
57985;SDS011;43788;42.670;23.330;2024-03-25T00:34:35;0.10;;;0.00;;
57985;SDS011;43788;42.670;23.330;2024-03-25T00:37:01;0.00;;;0.00;;
57985;SDS011;43788;42.670;23.330;2024-03-25T00:39:28;0.00;;;0.00;;
57985;SDS011;43788;42.670;23.330;2024-03-25T00:41:57;0.00;;;0.00;;
57985;SDS011;43788;42.670;23.330;2024-03-25T00:44:23;0.00;;;0.00;;
57985;SDS011;43788;42.670;23.330;2024-03-25T00:46:49;0.00;;;0.00;;
57985;SDS011;43788;42.670;23.330;2024-03-25T00:49:15;0.00;;;0.00;;
57985;SDS011;43788;42.670;23.330;2024-03-25T00:51:40;0.00;;;0.00;;
57985;SDS011;43788;42.670;23.330;2024-03-25T00:54:06;0.00;;;0.00;;
57985;SDS011;43788;42.670;23.330;2024-03-25T00:56:32;0.00;;;0.00;;
57985;SDS011;43788;42.670;23.330;2024-03-25T00:58:57;1.17;;;0.20;;
57985;SDS011;43788;42.670;23.330;2024-03-25T01:01:27;0.00;;;0.00;;
57985;SDS011;43788;42.670;23.330;2024-03-25T01:03:53;0.00;;;0.00;;
57985;SDS011;43788;42.670;23.330;2024-03-25T01:06:22;0.00;;;0.00;;
57985;SDS011;43788;42.670;23.330;2024-03-25T01:08:47;0.00;;;0.00;;
57985;SDS011;43788;42.670;23.330;2024-03-25T01:11:13;0.00;;;0.00;;
57985;SDS011;43788;42.670;23.330;2024-03-25T01:13:38;0.00;;;0.00;;
57985;SDS011;43788;42.670;23.330;2024-03-25T01:16:06;0.00;;;0.00;;
57985;SDS011;43788;42.670;23.330;2024-03-25T01:18:32;0.00;;;0.00;;
57985;SDS011;43788;42.670;23.330;2024-03-25T01:20:58;0.00;;;0.00;;
57985;SDS011;43788;42.670;23.330;2024-03-25T01:23:24;0.00;;;0.00;;
57985;SDS011;43788;42.670;23.330;2024-03-25T01:25:49;0.22;;;0.10;;
57985;SDS011;43788;42.670;23.330;2024-03-25T01:28:15;0.00;;;0.00;;
57985;SDS011;43788;42.670;23.330;2024-03-25T01:30:41;0.38;;;0.05;;
57985;SDS011;43788;42.670;23.330;2024-03-25T01:33:06;0.00;;;0.00;;
57985;SDS011;43788;42.670;23.330;2024-03-25T01:35:32;0.00;;;0.00;;
57985;SDS011;43788;42.670;23.330;2024-03-25T01:37:57;0.00;;;0.00;;
57985;SDS011;43788;42.670;23.330;2024-03-25T01:40:23;0.00;;;0.00;;
57985;SDS011;43788;42.670;23.330;2024-03-25T01:42:56;0.10;;;0.05;;
57985;SDS011;43788;42.670;23.330;2024-03-25T01:45:23;0.00;;;0.00;;
57985;SDS011;43788;42.670;23.330;2024-03-25T01:47:49;0.00;;;0.00;;
57985;SDS011;43788;42.670;23.330;2024-03-25T01:50:15;0.00;;;0.00;;
57985;SDS011;43788;42.670;23.330;2024-03-25T01:52:41;0.00;;;0.00;;
57985;SDS011;43788;42.670;23.330;2024-03-25T01:55:07;0.00;;;0.00;;
57985;SDS011;43788;42.670;23.330;2024-03-25T01:57:37;0.00;;;0.00;;
57985;SDS011;43788;42.670;23.330;2024-03-25T02:00:03;0.00;;;0.00;;
57985;SDS011;43788;42.670;23.330;2024-03-25T02:02:30;0.00;;;0.00;;
57985;SDS011;43788;42.670;23.330;2024-03-25T02:04:56;0.00;;;0.00;;
57985;SDS011;43788;42.670;23.330;2024-03-25T02:07:21;0.00;;;0.00;;
57985;SDS011;43788;42.670;23.330;2024-03-25T02:09:48;0.05;;;0.03;;
57985;SDS011;43788;42.670;23.330;2024-03-25T02:12:14;0.00;;;0.00;;
57985;SDS011;43788;42.670;23.330;2024-03-25T02:14:39;0.00;;;0.00;;
57985;SDS011;43788;42.670;23.330;2024-03-25T02:17:05;0.00;;;0.00;;
57985;SDS011;43788;42.670;23.330;2024-03-25T02:19:31;0.00;;;0.00;;
57985;SDS011;43788;42.670;23.330;2024-03-25T02:21:57;0.00;;;0.00;;
57985;SDS011;43788;42.670;23.330;2024-03-25T02:24:22;0.00;;;0.00;;
57985;SDS011;43788;42.670;23.330;2024-03-25T02:26:49;0.00;;;0.00;;
57985;SDS011;43788;42.670;23.330;2024-03-25T02:29:14;0.00;;;0.00;;
57985;SDS011;43788;42.670;23.330;2024-03-25T02:31:39;0.00;;;0.00;;
57985;SDS011;43788;42.670;23.330;2024-03-25T02:34:05;0.00;;;0.00;;
57985;SDS011;43788;42.670;23.330;2024-03-25T02:36:30;0.00;;;0.00;;
57985;SDS011;43788;42.670;23.330;2024-03-25T02:38:56;0.00;;;0.00;;
57985;SDS011;43788;42.670;23.330;2024-03-25T02:41:21;0.00;;;0.00;;
57985;SDS011;43788;42.670;23.330;2024-03-25T02:43:49;0.00;;;0.00;;
57985;SDS011;43788;42.670;23.330;2024-03-25T02:46:15;0.00;;;0.00;;
57985;SDS011;43788;42.670;23.330;2024-03-25T02:48:40;0.00;;;0.00;;
57985;SDS011;43788;42.670;23.330;2024-03-25T02:51:06;0.00;;;0.00;;
57985;SDS011;43788;42.670;23.330;2024-03-25T02:53:31;0.00;;;0.00;;
57985;SDS011;43788;42.670;23.330;2024-03-25T02:55:56;0.00;;;0.00;;
57985;SDS011;43788;42.670;23.330;2024-03-25T02:58:22;0.00;;;0.00;;
57985;SDS011;43788;42.670;23.330;2024-03-25T03:00:47;0.00;;;0.00;;
57985;SDS011;43788;42.670;23.330;2024-03-25T03:03:13;0.00;;;0.00;;
57985;SDS011;43788;42.670;23.330;2024-03-25T03:05:38;0.00;;;0.00;;
57985;SDS011;43788;42.670;23.330;2024-03-25T03:08:04;0.00;;;0.00;;
57985;SDS011;43788;42.670;23.330;2024-03-25T03:10:29;0.00;;;0.00;;
57985;SDS011;43788;42.670;23.330;2024-03-25T03:12:55;0.00;;;0.00;;
57985;SDS011;43788;42.670;23.330;2024-03-25T03:15:20;0.00;;;0.00;;
57985;SDS011;43788;42.670;23.330;2024-03-25T03:17:46;0.00;;;0.00;;
57985;SDS011;43788;42.670;23.330;2024-03-25T03:20:11;0.00;;;0.00;;
57985;SDS011;43788;42.670;23.330;2024-03-25T03:22:37;0.00;;;0.00;;
57985;SDS011;43788;42.670;23.330;2024-03-25T03:25:02;0.00;;;0.00;;
57985;SDS011;43788;42.670;23.330;2024-03-25T03:27:28;0.00;;;0.00;;
57985;SDS011;43788;42.670;23.330;2024-03-25T03:29:55;0.00;;;0.00;;
57985;SDS011;43788;42.670;23.330;2024-03-25T03:32:21;0.00;;;0.00;;
57985;SDS011;43788;42.670;23.330;2024-03-25T03:34:46;0.00;;;0.00;;
57985;SDS011;43788;42.670;23.330;2024-03-25T03:37:12;0.00;;;0.00;;
57985;SDS011;43788;42.670;23.330;2024-03-25T03:39:37;0.10;;;0.03;;
57985;SDS011;43788;42.670;23.330;2024-03-25T03:42:03;0.00;;;0.00;;
57985;SDS011;43788;42.670;23.330;2024-03-25T03:44:28;0.00;;;0.00;;
57985;SDS011;43788;42.670;23.330;2024-03-25T03:46:53;0.00;;;0.00;;
57985;SDS011;43788;42.670;23.330;2024-03-25T03:49:19;0.00;;;0.00;;
57985;SDS011;43788;42.670;23.330;2024-03-25T03:51:46;0.00;;;0.00;;
57985;SDS011;43788;42.670;23.330;2024-03-25T03:54:11;0.00;;;0.00;;
57985;SDS011;43788;42.670;23.330;2024-03-25T03:56:37;0.00;;;0.00;;
57985;SDS011;43788;42.670;23.330;2024-03-25T03:59:02;0.00;;;0.00;;
57985;SDS011;43788;42.670;23.330;2024-03-25T04:01:29;0.00;;;0.00;;
57985;SDS011;43788;42.670;23.330;2024-03-25T04:03:54;0.08;;;0.05;;
57985;SDS011;43788;42.670;23.330;2024-03-25T04:06:20;0.03;;;0.03;;
57985;SDS011;43788;42.670;23.330;2024-03-25T04:08:46;0.00;;;0.00;;
57985;SDS011;43788;42.670;23.330;2024-03-25T04:11:12;0.00;;;0.00;;
57985;SDS011;43788;42.670;23.330;2024-03-25T04:13:37;0.10;;;0.10;;
57985;SDS011;43788;42.670;23.330;2024-03-25T04:16:04;0.15;;;0.00;;
57985;SDS011;43788;42.670;23.330;2024-03-25T04:18:30;0.25;;;0.20;;
57985;SDS011;43788;42.670;23.330;2024-03-25T04:20:56;0.10;;;0.10;;
57985;SDS011;43788;42.670;23.330;2024-03-25T04:23:23;0.10;;;0.10;;
57985;SDS011;43788;42.670;23.330;2024-03-25T04:25:49;0.20;;;0.10;;
57985;SDS011;43788;42.670;23.330;2024-03-25T04:28:15;0.05;;;0.00;;
57985;SDS011;43788;42.670;23.330;2024-03-25T04:30:41;0.00;;;0.00;;
57985;SDS011;43788;42.670;23.330;2024-03-25T04:33:06;0.13;;;0.08;;
57985;SDS011;43788;42.670;23.330;2024-03-25T04:35:32;0.20;;;0.20;;
57985;SDS011;43788;42.670;23.330;2024-03-25T04:37:57;0.28;;;0.28;;
57985;SDS011;43788;42.670;23.330;2024-03-25T04:40:23;0.28;;;0.22;;
57985;SDS011;43788;42.670;23.330;2024-03-25T04:42:48;2.72;;;0.50;;
57985;SDS011;43788;42.670;23.330;2024-03-25T04:45:14;0.50;;;0.20;;
57985;SDS011;43788;42.670;23.330;2024-03-25T04:47:40;0.70;;;0.45;;
57985;SDS011;43788;42.670;23.330;2024-03-25T04:50:06;0.13;;;0.13;;
57985;SDS011;43788;42.670;23.330;2024-03-25T04:52:33;0.75;;;0.55;;
57985;SDS011;43788;42.670;23.330;2024-03-25T04:54:58;0.28;;;0.25;;
57985;SDS011;43788;42.670;23.330;2024-03-25T04:57:23;0.25;;;0.25;;
57985;SDS011;43788;42.670;23.330;2024-03-25T04:59:49;0.15;;;0.15;;
57985;SDS011;43788;42.670;23.330;2024-03-25T05:02:14;0.17;;;0.17;;
57985;SDS011;43788;42.670;23.330;2024-03-25T05:04:40;0.63;;;0.28;;
57985;SDS011;43788;42.670;23.330;2024-03-25T05:07:05;0.60;;;0.40;;
57985;SDS011;43788;42.670;23.330;2024-03-25T05:09:31;0.30;;;0.30;;
57985;SDS011;43788;42.670;23.330;2024-03-25T05:11:56;0.40;;;0.40;;
57985;SDS011;43788;42.670;23.330;2024-03-25T05:14:22;0.20;;;0.20;;
57985;SDS011;43788;42.670;23.330;2024-03-25T05:16:47;0.20;;;0.20;;
57985;SDS011;43788;42.670;23.330;2024-03-25T05:19:14;0.30;;;0.30;;
57985;SDS011;43788;42.670;23.330;2024-03-25T05:21:39;0.30;;;0.30;;
57985;SDS011;43788;42.670;23.330;2024-03-25T05:24:05;0.43;;;0.38;;
57985;SDS011;43788;42.670;23.330;2024-03-25T05:26:31;0.10;;;0.10;;
57985;SDS011;43788;42.670;23.330;2024-03-25T05:29:02;0.40;;;0.40;;
57985;SDS011;43788;42.670;23.330;2024-03-25T05:31:28;0.70;;;0.55;;
57985;SDS011;43788;42.670;23.330;2024-03-25T05:33:53;0.20;;;0.20;;
57985;SDS011;43788;42.670;23.330;2024-03-25T05:36:22;0.55;;;0.35;;
57985;SDS011;43788;42.670;23.330;2024-03-25T05:38:47;0.40;;;0.30;;
57985;SDS011;43788;42.670;23.330;2024-03-25T05:41:13;0.30;;;0.30;;
57985;SDS011;43788;42.670;23.330;2024-03-25T05:43:39;0.57;;;0.40;;
57985;SDS011;43788;42.670;23.330;2024-03-25T05:46:04;0.50;;;0.50;;
57985;SDS011;43788;42.670;23.330;2024-03-25T05:48:30;0.73;;;0.57;;
57985;SDS011;43788;42.670;23.330;2024-03-25T05:51:03;0.40;;;0.40;;
57985;SDS011;43788;42.670;23.330;2024-03-25T05:53:30;1.02;;;0.50;;
57985;SDS011;43788;42.670;23.330;2024-03-25T05:55:56;0.60;;;0.60;;
57985;SDS011;43788;42.670;23.330;2024-03-25T05:58:21;0.47;;;0.38;;
57985;SDS011;43788;42.670;23.330;2024-03-25T06:00:48;0.82;;;0.65;;
57985;SDS011;43788;42.670;23.330;2024-03-25T06:03:14;0.35;;;0.35;;
57985;SDS011;43788;42.670;23.330;2024-03-25T06:05:49;0.30;;;0.30;;
57985;SDS011;43788;42.670;23.330;2024-03-25T06:08:14;0.35;;;0.35;;
57985;SDS011;43788;42.670;23.330;2024-03-25T06:10:46;0.70;;;0.68;;
57985;SDS011;43788;42.670;23.330;2024-03-25T06:13:11;0.38;;;0.38;;
57985;SDS011;43788;42.670;23.330;2024-03-25T06:15:37;0.30;;;0.30;;
57985;SDS011;43788;42.670;23.330;2024-03-25T06:18:03;0.85;;;0.70;;
57985;SDS011;43788;42.670;23.330;2024-03-25T06:20:29;0.50;;;0.50;;
57985;SDS011;43788;42.670;23.330;2024-03-25T06:22:54;0.40;;;0.30;;
57985;SDS011;43788;42.670;23.330;2024-03-25T06:25:23;0.40;;;0.40;;
57985;SDS011;43788;42.670;23.330;2024-03-25T06:27:48;2.95;;;0.40;;
57985;SDS011;43788;42.670;23.330;2024-03-25T06:30:13;0.40;;;0.40;;
57985;SDS011;43788;42.670;23.330;2024-03-25T06:32:49;0.60;;;0.60;;
57985;SDS011;43788;42.670;23.330;2024-03-25T06:35:42;1.08;;;0.80;;
57985;SDS011;43788;42.670;23.330;2024-03-25T06:38:10;0.65;;;0.65;;
57985;SDS011;43788;42.670;23.330;2024-03-25T06:40:49;0.40;;;0.40;;
57985;SDS011;43788;42.670;23.330;2024-03-25T06:43:16;1.23;;;0.73;;
57985;SDS011;43788;42.670;23.330;2024-03-25T06:45:43;1.52;;;0.50;;
57985;SDS011;43788;42.670;23.330;2024-03-25T06:48:09;0.20;;;0.20;;
57985;SDS011;43788;42.670;23.330;2024-03-25T06:50:37;0.50;;;0.50;;
57985;SDS011;43788;42.670;23.330;2024-03-25T06:53:03;0.43;;;0.40;;
57985;SDS011;43788;42.670;23.330;2024-03-25T06:55:29;1.33;;;0.38;;
57985;SDS011;43788;42.670;23.330;2024-03-25T06:57:54;0.40;;;0.40;;
57985;SDS011;43788;42.670;23.330;2024-03-25T07:00:20;0.20;;;0.20;;
57985;SDS011;43788;42.670;23.330;2024-03-25T07:02:47;0.47;;;0.47;;
57985;SDS011;43788;42.670;23.330;2024-03-25T07:05:17;0.45;;;0.45;;
57985;SDS011;43788;42.670;23.330;2024-03-25T07:07:42;0.32;;;0.32;;
57985;SDS011;43788;42.670;23.330;2024-03-25T07:10:08;0.32;;;0.32;;
57985;SDS011;43788;42.670;23.330;2024-03-25T07:12:33;0.65;;;0.50;;
57985;SDS011;43788;42.670;23.330;2024-03-25T07:14:59;0.45;;;0.45;;
57985;SDS011;43788;42.670;23.330;2024-03-25T07:17:25;0.50;;;0.47;;
57985;SDS011;43788;42.670;23.330;2024-03-25T07:19:51;0.40;;;0.40;;
57985;SDS011;43788;42.670;23.330;2024-03-25T07:22:16;0.63;;;0.63;;
57985;SDS011;43788;42.670;23.330;2024-03-25T07:24:42;0.30;;;0.30;;
57985;SDS011;43788;42.670;23.330;2024-03-25T07:27:08;0.45;;;0.30;;
57985;SDS011;43788;42.670;23.330;2024-03-25T07:29:34;0.63;;;0.63;;
57985;SDS011;43788;42.670;23.330;2024-03-25T07:32:01;0.47;;;0.47;;
57985;SDS011;43788;42.670;23.330;2024-03-25T07:34:30;0.40;;;0.40;;
57985;SDS011;43788;42.670;23.330;2024-03-25T07:37:02;0.60;;;0.50;;
57985;SDS011;43788;42.670;23.330;2024-03-25T07:39:32;0.20;;;0.20;;
57985;SDS011;43788;42.670;23.330;2024-03-25T07:41:58;0.32;;;0.32;;
57985;SDS011;43788;42.670;23.330;2024-03-25T07:44:25;0.55;;;0.50;;
57985;SDS011;43788;42.670;23.330;2024-03-25T07:46:50;0.20;;;0.20;;
57985;SDS011;43788;42.670;23.330;2024-03-25T07:49:19;0.60;;;0.50;;
57985;SDS011;43788;42.670;23.330;2024-03-25T07:51:46;0.55;;;0.55;;
57985;SDS011;43788;42.670;23.330;2024-03-25T07:54:11;0.35;;;0.35;;
57985;SDS011;43788;42.670;23.330;2024-03-25T07:56:39;0.45;;;0.45;;
57985;SDS011;43788;42.670;23.330;2024-03-25T07:59:04;0.32;;;0.32;;
57985;SDS011;43788;42.670;23.330;2024-03-25T08:01:30;0.40;;;0.40;;
57985;SDS011;43788;42.670;23.330;2024-03-25T08:03:55;0.63;;;0.50;;
57985;SDS011;43788;42.670;23.330;2024-03-25T08:06:21;0.40;;;0.40;;
57985;SDS011;43788;42.670;23.330;2024-03-25T08:08:47;0.65;;;0.40;;
57985;SDS011;43788;42.670;23.330;2024-03-25T08:11:12;0.60;;;0.60;;
57985;SDS011;43788;42.670;23.330;2024-03-25T08:13:40;0.20;;;0.20;;
57985;SDS011;43788;42.670;23.330;2024-03-25T08:16:06;0.30;;;0.30;;
57985;SDS011;43788;42.670;23.330;2024-03-25T08:18:32;0.22;;;0.20;;
57985;SDS011;43788;42.670;23.330;2024-03-25T08:20:59;1.23;;;1.02;;
57985;SDS011;43788;42.670;23.330;2024-03-25T08:23:24;0.30;;;0.30;;
57985;SDS011;43788;42.670;23.330;2024-03-25T08:25:50;1.60;;;1.02;;
57985;SDS011;43788;42.670;23.330;2024-03-25T08:28:16;0.73;;;0.47;;
57985;SDS011;43788;42.670;23.330;2024-03-25T08:30:42;0.93;;;0.93;;
57985;SDS011;43788;42.670;23.330;2024-03-25T08:33:08;0.40;;;0.40;;
57985;SDS011;43788;42.670;23.330;2024-03-25T08:35:33;0.60;;;0.50;;
57985;SDS011;43788;42.670;23.330;2024-03-25T08:38:02;1.98;;;1.40;;
57985;SDS011;43788;42.670;23.330;2024-03-25T08:40:30;0.43;;;0.40;;
57985;SDS011;43788;42.670;23.330;2024-03-25T08:43:02;0.32;;;0.32;;
57985;SDS011;43788;42.670;23.330;2024-03-25T08:45:27;0.50;;;0.45;;
57985;SDS011;43788;42.670;23.330;2024-03-25T08:47:53;0.40;;;0.32;;
57985;SDS011;43788;42.670;23.330;2024-03-25T08:50:21;0.22;;;0.22;;
57985;SDS011;43788;42.670;23.330;2024-03-25T08:52:47;0.30;;;0.30;;
57985;SDS011;43788;42.670;23.330;2024-03-25T08:55:14;0.20;;;0.20;;
57985;SDS011;43788;42.670;23.330;2024-03-25T08:57:43;0.40;;;0.40;;
57985;SDS011;43788;42.670;23.330;2024-03-25T09:00:11;0.10;;;0.10;;
57985;SDS011;43788;42.670;23.330;2024-03-25T09:02:38;0.60;;;0.40;;
57985;SDS011;43788;42.670;23.330;2024-03-25T09:05:04;1.50;;;0.60;;
57985;SDS011;43788;42.670;23.330;2024-03-25T09:07:32;0.35;;;0.35;;
57985;SDS011;43788;42.670;23.330;2024-03-25T09:09:58;0.50;;;0.40;;
57985;SDS011;43788;42.670;23.330;2024-03-25T09:12:33;0.20;;;0.20;;
57985;SDS011;43788;42.670;23.330;2024-03-25T09:14:59;1.65;;;0.57;;
57985;SDS011;43788;42.670;23.330;2024-03-25T09:17:25;0.45;;;0.40;;
57985;SDS011;43788;42.670;23.330;2024-03-25T09:19:50;0.63;;;0.32;;
57985;SDS011;43788;42.670;23.330;2024-03-25T09:22:19;0.90;;;0.68;;
57985;SDS011;43788;42.670;23.330;2024-03-25T09:24:47;0.45;;;0.45;;
57985;SDS011;43788;42.670;23.330;2024-03-25T09:27:23;0.90;;;0.80;;
57985;SDS011;43788;42.670;23.330;2024-03-25T09:29:49;0.35;;;0.35;;
57985;SDS011;43788;42.670;23.330;2024-03-25T09:32:14;0.30;;;0.30;;
57985;SDS011;43788;42.670;23.330;2024-03-25T09:34:40;0.55;;;0.32;;
57985;SDS011;43788;42.670;23.330;2024-03-25T09:37:08;1.00;;;0.50;;
57985;SDS011;43788;42.670;23.330;2024-03-25T09:39:34;0.30;;;0.30;;
57985;SDS011;43788;42.670;23.330;2024-03-25T09:42:01;0.45;;;0.45;;
57985;SDS011;43788;42.670;23.330;2024-03-25T09:44:26;0.40;;;0.40;;
57985;SDS011;43788;42.670;23.330;2024-03-25T09:46:55;0.40;;;0.40;;
57985;SDS011;43788;42.670;23.330;2024-03-25T09:49:22;0.35;;;0.35;;
57985;SDS011;43788;42.670;23.330;2024-03-25T09:51:52;0.60;;;0.60;;
57985;SDS011;43788;42.670;23.330;2024-03-25T09:54:20;0.35;;;0.32;;
57985;SDS011;43788;42.670;23.330;2024-03-25T09:56:53;0.55;;;0.45;;
57985;SDS011;43788;42.670;23.330;2024-03-25T09:59:19;0.30;;;0.30;;
57985;SDS011;43788;42.670;23.330;2024-03-25T10:01:48;0.20;;;0.20;;
57985;SDS011;43788;42.670;23.330;2024-03-25T10:04:13;0.85;;;0.50;;
57985;SDS011;43788;42.670;23.330;2024-03-25T10:06:39;0.52;;;0.22;;
57985;SDS011;43788;42.670;23.330;2024-03-25T10:09:05;0.20;;;0.20;;
57985;SDS011;43788;42.670;23.330;2024-03-25T10:11:31;0.45;;;0.30;;
57985;SDS011;43788;42.670;23.330;2024-03-25T10:14:00;0.45;;;0.40;;
57985;SDS011;43788;42.670;23.330;2024-03-25T10:16:27;0.20;;;0.20;;
57985;SDS011;43788;42.670;23.330;2024-03-25T10:18:53;0.22;;;0.17;;
57985;SDS011;43788;42.670;23.330;2024-03-25T10:21:20;0.25;;;0.25;;
57985;SDS011;43788;42.670;23.330;2024-03-25T10:23:47;0.20;;;0.20;;
57985;SDS011;43788;42.670;23.330;2024-03-25T10:29:01;0.20;;;0.20;;
57985;SDS011;43788;42.670;23.330;2024-03-25T10:31:32;2.10;;;0.43;;
57985;SDS011;43788;42.670;23.330;2024-03-25T10:33:59;0.47;;;0.30;;
57985;SDS011;43788;42.670;23.330;2024-03-25T10:36:30;0.20;;;0.20;;
57985;SDS011;43788;42.670;23.330;2024-03-25T10:39:01;0.20;;;0.20;;
57985;SDS011;43788;42.670;23.330;2024-03-25T10:41:38;0.45;;;0.22;;
57985;SDS011;43788;42.670;23.330;2024-03-25T10:44:04;0.32;;;0.30;;
57985;SDS011;43788;42.670;23.330;2024-03-25T10:46:32;0.20;;;0.20;;
57985;SDS011;43788;42.670;23.330;2024-03-25T10:49:02;0.20;;;0.20;;
57985;SDS011;43788;42.670;23.330;2024-03-25T10:51:36;0.08;;;0.08;;
57985;SDS011;43788;42.670;23.330;2024-03-25T10:54:18;0.20;;;0.20;;
57985;SDS011;43788;42.670;23.330;2024-03-25T10:56:44;0.43;;;0.30;;
57985;SDS011;43788;42.670;23.330;2024-03-25T10:59:10;0.20;;;0.20;;
57985;SDS011;43788;42.670;23.330;2024-03-25T11:01:39;0.20;;;0.20;;
57985;SDS011;43788;42.670;23.330;2024-03-25T11:04:04;0.15;;;0.15;;
57985;SDS011;43788;42.670;23.330;2024-03-25T11:06:31;0.30;;;0.28;;
57985;SDS011;43788;42.670;23.330;2024-03-25T11:08:58;0.60;;;0.40;;
57985;SDS011;43788;42.670;23.330;2024-03-25T11:11:33;0.35;;;0.35;;
57985;SDS011;43788;42.670;23.330;2024-03-25T11:14:03;0.20;;;0.20;;
57985;SDS011;43788;42.670;23.330;2024-03-25T11:16:32;0.20;;;0.20;;
57985;SDS011;43788;42.670;23.330;2024-03-25T11:19:05;0.28;;;0.20;;
57985;SDS011;43788;42.670;23.330;2024-03-25T11:21:32;0.38;;;0.20;;
57985;SDS011;43788;42.670;23.330;2024-03-25T11:24:05;0.30;;;0.20;;
57985;SDS011;43788;42.670;23.330;2024-03-25T11:26:44;0.20;;;0.20;;
57985;SDS011;43788;42.670;23.330;2024-03-25T11:29:12;0.10;;;0.10;;
57985;SDS011;43788;42.670;23.330;2024-03-25T11:31:38;0.35;;;0.30;;
57985;SDS011;43788;42.670;23.330;2024-03-25T11:34:07;0.10;;;0.10;;
57985;SDS011;43788;42.670;23.330;2024-03-25T11:36:33;0.13;;;0.13;;
57985;SDS011;43788;42.670;23.330;2024-03-25T11:39:00;0.15;;;0.15;;
57985;SDS011;43788;42.670;23.330;2024-03-25T11:41:29;0.20;;;0.10;;
57985;SDS011;43788;42.670;23.330;2024-03-25T11:43:57;0.40;;;0.38;;
57985;SDS011;43788;42.670;23.330;2024-03-25T11:46:26;0.30;;;0.30;;
57985;SDS011;43788;42.670;23.330;2024-03-25T11:48:52;0.20;;;0.10;;
57985;SDS011;43788;42.670;23.330;2024-03-25T11:51:18;0.10;;;0.10;;
57985;SDS011;43788;42.670;23.330;2024-03-25T11:53:44;0.10;;;0.10;;
57985;SDS011;43788;42.670;23.330;2024-03-25T11:56:11;0.20;;;0.20;;
57985;SDS011;43788;42.670;23.330;2024-03-25T11:58:37;0.70;;;0.52;;
57985;SDS011;43788;42.670;23.330;2024-03-25T12:01:03;0.10;;;0.10;;
57985;SDS011;43788;42.670;23.330;2024-03-25T12:03:29;0.20;;;0.20;;
57985;SDS011;43788;42.670;23.330;2024-03-25T12:05:55;0.28;;;0.20;;
57985;SDS011;43788;42.670;23.330;2024-03-25T12:08:21;0.75;;;0.50;;
57985;SDS011;43788;42.670;23.330;2024-03-25T12:10:51;0.03;;;0.03;;
57985;SDS011;43788;42.670;23.330;2024-03-25T12:13:28;0.10;;;0.10;;
57985;SDS011;43788;42.670;23.330;2024-03-25T12:15:55;0.63;;;0.63;;
57985;SDS011;43788;42.670;23.330;2024-03-25T12:18:21;0.20;;;0.20;;
57985;SDS011;43788;42.670;23.330;2024-03-25T12:20:47;0.20;;;0.20;;
57985;SDS011;43788;42.670;23.330;2024-03-25T12:23:14;0.10;;;0.10;;
57985;SDS011;43788;42.670;23.330;2024-03-25T12:25:41;0.20;;;0.20;;
57985;SDS011;43788;42.670;23.330;2024-03-25T12:28:08;4.40;;;0.30;;
57985;SDS011;43788;42.670;23.330;2024-03-25T12:30:40;0.30;;;0.28;;
57985;SDS011;43788;42.670;23.330;2024-03-25T12:33:15;0.10;;;0.10;;
57985;SDS011;43788;42.670;23.330;2024-03-25T12:35:41;0.20;;;0.20;;
57985;SDS011;43788;42.670;23.330;2024-03-25T12:38:07;0.10;;;0.10;;
57985;SDS011;43788;42.670;23.330;2024-03-25T12:40:32;0.10;;;0.10;;
57985;SDS011;43788;42.670;23.330;2024-03-25T12:42:58;0.03;;;0.03;;
57985;SDS011;43788;42.670;23.330;2024-03-25T12:45:24;2.35;;;0.30;;
57985;SDS011;43788;42.670;23.330;2024-03-25T12:47:50;0.15;;;0.13;;
57985;SDS011;43788;42.670;23.330;2024-03-25T12:50:17;0.20;;;0.20;;
57985;SDS011;43788;42.670;23.330;2024-03-25T12:52:44;1.02;;;0.17;;
57985;SDS011;43788;42.670;23.330;2024-03-25T12:55:09;0.20;;;0.20;;
57985;SDS011;43788;42.670;23.330;2024-03-25T12:57:35;0.57;;;0.55;;
57985;SDS011;43788;42.670;23.330;2024-03-25T13:00:07;0.20;;;0.20;;
57985;SDS011;43788;42.670;23.330;2024-03-25T13:02:36;0.43;;;0.20;;
57985;SDS011;43788;42.670;23.330;2024-03-25T13:05:08;0.20;;;0.20;;
57985;SDS011;43788;42.670;23.330;2024-03-25T13:07:45;0.00;;;0.00;;
57985;SDS011;43788;42.670;23.330;2024-03-25T13:10:22;0.25;;;0.20;;
57985;SDS011;43788;42.670;23.330;2024-03-25T13:12:47;0.10;;;0.10;;
57985;SDS011;43788;42.670;23.330;2024-03-25T13:15:12;0.30;;;0.30;;
57985;SDS011;43788;42.670;23.330;2024-03-25T13:17:38;0.20;;;0.20;;
57985;SDS011;43788;42.670;23.330;2024-03-25T13:20:04;0.10;;;0.10;;
57985;SDS011;43788;42.670;23.330;2024-03-25T13:22:30;0.15;;;0.15;;
57985;SDS011;43788;42.670;23.330;2024-03-25T13:25:00;0.20;;;0.20;;
57985;SDS011;43788;42.670;23.330;2024-03-25T13:27:33;0.20;;;0.20;;
57985;SDS011;43788;42.670;23.330;2024-03-25T13:30:03;0.20;;;0.10;;
57985;SDS011;43788;42.670;23.330;2024-03-25T13:32:30;0.60;;;0.30;;
57985;SDS011;43788;42.670;23.330;2024-03-25T13:34:56;0.17;;;0.17;;
57985;SDS011;43788;42.670;23.330;2024-03-25T13:37:24;0.20;;;0.20;;
57985;SDS011;43788;42.670;23.330;2024-03-25T13:39:51;0.10;;;0.10;;
57985;SDS011;43788;42.670;23.330;2024-03-25T13:42:18;0.15;;;0.15;;
57985;SDS011;43788;42.670;23.330;2024-03-25T13:44:43;0.10;;;0.10;;
57985;SDS011;43788;42.670;23.330;2024-03-25T13:47:09;0.10;;;0.10;;
57985;SDS011;43788;42.670;23.330;2024-03-25T13:49:37;0.20;;;0.10;;
57985;SDS011;43788;42.670;23.330;2024-03-25T13:52:03;0.25;;;0.25;;
57985;SDS011;43788;42.670;23.330;2024-03-25T13:54:29;0.00;;;0.00;;
57985;SDS011;43788;42.670;23.330;2024-03-25T13:56:57;0.13;;;0.13;;
57985;SDS011;43788;42.670;23.330;2024-03-25T13:59:23;0.20;;;0.20;;
57985;SDS011;43788;42.670;23.330;2024-03-25T14:01:48;0.20;;;0.10;;
57985;SDS011;43788;42.670;23.330;2024-03-25T14:04:15;0.15;;;0.15;;
57985;SDS011;43788;42.670;23.330;2024-03-25T14:06:40;1.75;;;0.10;;
57985;SDS011;43788;42.670;23.330;2024-03-25T14:09:06;0.00;;;0.00;;
57985;SDS011;43788;42.670;23.330;2024-03-25T14:11:34;0.00;;;0.00;;
57985;SDS011;43788;42.670;23.330;2024-03-25T14:14:00;0.03;;;0.03;;
57985;SDS011;43788;42.670;23.330;2024-03-25T14:16:25;0.00;;;0.00;;
57985;SDS011;43788;42.670;23.330;2024-03-25T14:18:51;0.65;;;0.10;;
57985;SDS011;43788;42.670;23.330;2024-03-25T14:21:16;0.00;;;0.00;;
57985;SDS011;43788;42.670;23.330;2024-03-25T14:23:42;0.00;;;0.00;;
57985;SDS011;43788;42.670;23.330;2024-03-25T14:26:09;0.00;;;0.00;;
57985;SDS011;43788;42.670;23.330;2024-03-25T14:28:35;1.98;;;0.10;;
57985;SDS011;43788;42.670;23.330;2024-03-25T14:31:02;0.10;;;0.08;;
57985;SDS011;43788;42.670;23.330;2024-03-25T14:33:28;0.08;;;0.08;;